KMFE/MFE METAR and TAF weather

Enter ICAO airport designator
Station Type Date Time Source
KMFE METAR 2020/09/26 23:53 UTC NOAA

KMFE 262353Z 14014KT 10SM CLR 32/23 A2979 RMK AO2 SLP084 T03170228 10356 20317 55009


Station Type Date Time Source
KMFE Decoded METAR 2020/09/26 23:53 UTC NOAA

MCALLEN MILLER INTERNATIONAL AIRPORT , TX, United States (KMFE) 26-11N 98-15W 38M
Sep 26, 2020 - 07:53 PM EDT / 2020.09.26 2353 UTC
Wind: from the SE (140 degrees) at 16 MPH (14 KT):0
Visibility: 10 mile(s):0
Sky conditions: clear
Temperature: 89.1 F (31.7 C)
Heat index: 97.0 F (36.1 C):1
Dew Point: 73.0 F (22.8 C)
Relative Humidity: 59%
Pressure (altimeter): 29.79 in. Hg (1008 hPa)
Pressure tendency: 0.03 inches (0.9 hPa) lower than three hours ago
ob: KMFE 262353Z 14014KT 10SM CLR 32/23 A2979 RMK AO2 SLP084 T03170228 10356 20317 55009
cycle: 0

Station Type Date Time Source
KMFE TAF 2020/09/26 18:22 UTC NOAA

TAF KMFE 261720Z 2618/2718 16013G20KT P6SM SCT030
FM270500 14010KT P6SM FEW020
FM271400 16015G22KT P6SM SCT030

Example: see airport list